sensor_id;sensor_type;location;lat;lon;timestamp;pressure;altitude;pressure_sealevel;temperature;humidity
25944;BME280;13742;49.306;8.636;2022-10-24T00:00:57;100063.73;;;16.60;100.00
25944;BME280;13742;49.306;8.636;2022-10-24T00:01:54;100068.12;;;16.61;100.00
25944;BME280;13742;49.306;8.636;2022-10-24T00:02:54;100054.78;;;16.61;100.00
25944;BME280;13742;49.306;8.636;2022-10-24T00:03:54;100055.50;;;16.62;100.00
25944;BME280;13742;49.306;8.636;2022-10-24T00:04:54;100052.91;;;16.61;100.00
25944;BME280;13742;49.306;8.636;2022-10-24T00:05:54;100054.23;;;16.61;100.00
25944;BME280;13742;49.306;8.636;2022-10-24T00:06:54;100061.34;;;16.61;100.00
25944;BME280;13742;49.306;8.636;2022-10-24T00:07:54;100063.51;;;16.61;100.00
25944;BME280;13742;49.306;8.636;2022-10-24T00:08:54;100060.95;;;16.61;100.00
25944;BME280;13742;49.306;8.636;2022-10-24T00:09:54;100059.50;;;16.62;100.00
25944;BME280;13742;49.306;8.636;2022-10-24T00:10:54;100059.00;;;16.63;100.00
25944;BME280;13742;49.306;8.636;2022-10-24T00:11:55;100058.56;;;16.62;100.00
25944;BME280;13742;49.306;8.636;2022-10-24T00:12:54;100059.63;;;16.62;100.00
25944;BME280;13742;49.306;8.636;2022-10-24T00:13:56;100055.95;;;16.62;100.00
25944;BME280;13742;49.306;8.636;2022-10-24T00:14:54;100054.95;;;16.62;100.00
25944;BME280;13742;49.306;8.636;2022-10-24T00:15:54;100054.89;;;16.62;100.00
25944;BME280;13742;49.306;8.636;2022-10-24T00:16:54;100058.69;;;16.62;100.00
25944;BME280;13742;49.306;8.636;2022-10-24T00:17:54;100057.73;;;16.61;100.00
25944;BME280;13742;49.306;8.636;2022-10-24T00:18:54;100054.78;;;16.61;100.00
25944;BME280;13742;49.306;8.636;2022-10-24T00:19:57;100058.57;;;16.61;100.00
25944;BME280;13742;49.306;8.636;2022-10-24T00:20:54;100053.23;;;16.60;100.00
25944;BME280;13742;49.306;8.636;2022-10-24T00:21:54;100050.45;;;16.60;100.00
25944;BME280;13742;49.306;8.636;2022-10-24T00:22:54;100046.29;;;16.60;100.00
25944;BME280;13742;49.306;8.636;2022-10-24T00:23:54;100046.58;;;16.59;100.00
25944;BME280;13742;49.306;8.636;2022-10-24T00:24:54;100040.13;;;16.59;100.00
25944;BME280;13742;49.306;8.636;2022-10-24T00:25:54;100039.80;;;16.59;100.00
25944;BME280;13742;49.306;8.636;2022-10-24T00:26:54;100037.59;;;16.58;100.00
25944;BME280;13742;49.306;8.636;2022-10-24T00:27:54;100037.81;;;16.58;100.00
25944;BME280;13742;49.306;8.636;2022-10-24T00:28:54;100040.59;;;16.56;100.00
25944;BME280;13742;49.306;8.636;2022-10-24T00:29:54;100036.08;;;16.56;100.00
25944;BME280;13742;49.306;8.636;2022-10-24T00:30:55;100039.88;;;16.55;100.00
25944;BME280;13742;49.306;8.636;2022-10-24T00:31:54;100038.34;;;16.53;100.00
25944;BME280;13742;49.306;8.636;2022-10-24T00:32:54;100036.73;;;16.52;100.00
25944;BME280;13742;49.306;8.636;2022-10-24T00:33:55;100038.05;;;16.52;100.00
25944;BME280;13742;49.306;8.636;2022-10-24T00:34:54;100037.23;;;16.51;100.00
25944;BME280;13742;49.306;8.636;2022-10-24T00:35:54;100042.34;;;16.51;100.00
25944;BME280;13742;49.306;8.636;2022-10-24T00:36:54;100040.80;;;16.50;100.00
25944;BME280;13742;49.306;8.636;2022-10-24T00:37:54;100042.63;;;16.50;100.00
25944;BME280;13742;49.306;8.636;2022-10-24T00:38:54;100045.30;;;16.48;100.00
25944;BME280;13742;49.306;8.636;2022-10-24T00:39:54;100043.02;;;16.48;100.00
25944;BME280;13742;49.306;8.636;2022-10-24T00:40:54;100042.20;;;16.46;100.00
25944;BME280;13742;49.306;8.636;2022-10-24T00:41:57;100041.92;;;16.46;100.00
25944;BME280;13742;49.306;8.636;2022-10-24T00:42:54;100044.42;;;16.46;100.00
25944;BME280;13742;49.306;8.636;2022-10-24T00:44:54;100038.54;;;16.45;100.00
25944;BME280;13742;49.306;8.636;2022-10-24T00:45:58;100042.61;;;16.43;100.00
25944;BME280;13742;49.306;8.636;2022-10-24T00:46:55;100045.38;;;16.43;100.00
25944;BME280;13742;49.306;8.636;2022-10-24T00:47:54;100043.66;;;16.42;100.00
25944;BME280;13742;49.306;8.636;2022-10-24T00:48:54;100045.78;;;16.41;100.00
25944;BME280;13742;49.306;8.636;2022-10-24T00:50:05;100046.34;;;16.41;100.00
25944;BME280;13742;49.306;8.636;2022-10-24T00:50:56;100045.50;;;16.40;100.00
25944;BME280;13742;49.306;8.636;2022-10-24T00:51:55;100042.79;;;16.40;100.00
25944;BME280;13742;49.306;8.636;2022-10-24T00:52:55;100042.11;;;16.39;100.00
25944;BME280;13742;49.306;8.636;2022-10-24T00:54:04;100041.13;;;16.38;100.00
25944;BME280;13742;49.306;8.636;2022-10-24T00:54:54;100041.69;;;16.38;100.00
25944;BME280;13742;49.306;8.636;2022-10-24T00:55:56;100042.80;;;16.38;100.00
25944;BME280;13742;49.306;8.636;2022-10-24T00:56:59;100040.01;;;16.37;100.00
25944;BME280;13742;49.306;8.636;2022-10-24T00:57:55;100041.13;;;16.38;100.00
25944;BME280;13742;49.306;8.636;2022-10-24T00:58:55;100038.68;;;16.37;100.00
25944;BME280;13742;49.306;8.636;2022-10-24T00:59:56;100038.30;;;16.37;100.00
25944;BME280;13742;49.306;8.636;2022-10-24T01:00:55;100041.69;;;16.36;100.00
25944;BME280;13742;49.306;8.636;2022-10-24T01:01:54;100041.69;;;16.36;100.00
25944;BME280;13742;49.306;8.636;2022-10-24T01:02:55;100038.47;;;16.35;100.00
25944;BME280;13742;49.306;8.636;2022-10-24T01:03:54;100038.94;;;16.34;100.00
25944;BME280;13742;49.306;8.636;2022-10-24T01:04:54;100042.55;;;16.33;100.00
25944;BME280;13742;49.306;8.636;2022-10-24T01:05:58;100045.88;;;16.33;100.00
25944;BME280;13742;49.306;8.636;2022-10-24T01:07:18;100041.32;;;16.34;100.00
25944;BME280;13742;49.306;8.636;2022-10-24T01:07:58;100043.27;;;16.33;100.00
25944;BME280;13742;49.306;8.636;2022-10-24T01:13:18;100033.69;;;16.30;100.00
25944;BME280;13742;49.306;8.636;2022-10-24T01:19:07;100039.54;;;16.25;100.00
25944;BME280;13742;49.306;8.636;2022-10-24T01:21:01;100031.43;;;16.23;100.00
25944;BME280;13742;49.306;8.636;2022-10-24T01:21:57;100032.61;;;16.23;100.00
25944;BME280;13742;49.306;8.636;2022-10-24T01:22:59;100030.63;;;16.22;100.00
25944;BME280;13742;49.306;8.636;2022-10-24T01:26:18;100026.61;;;16.22;100.00
25944;BME280;13742;49.306;8.636;2022-10-24T01:27:56;100020.36;;;16.20;100.00
25944;BME280;13742;49.306;8.636;2022-10-24T01:29:55;100014.08;;;16.19;100.00
25944;BME280;13742;49.306;8.636;2022-10-24T01:31:01;100014.57;;;16.19;100.00
25944;BME280;13742;49.306;8.636;2022-10-24T01:31:59;100013.42;;;16.18;100.00
25944;BME280;13742;49.306;8.636;2022-10-24T01:32:59;100017.09;;;16.16;100.00
25944;BME280;13742;49.306;8.636;2022-10-24T01:33:56;100023.92;;;16.16;100.00
25944;BME280;13742;49.306;8.636;2022-10-24T01:35:17;100021.70;;;16.15;100.00
25944;BME280;13742;49.306;8.636;2022-10-24T01:35:59;100024.14;;;16.14;100.00
25944;BME280;13742;49.306;8.636;2022-10-24T01:38:58;100017.83;;;16.11;100.00
25944;BME280;13742;49.306;8.636;2022-10-24T01:39:56;100021.22;;;16.11;100.00
25944;BME280;13742;49.306;8.636;2022-10-24T01:40:55;100018.17;;;16.09;100.00
25944;BME280;13742;49.306;8.636;2022-10-24T01:41:54;100018.61;;;16.08;100.00
25944;BME280;13742;49.306;8.636;2022-10-24T01:42:55;100018.34;;;16.08;100.00
25944;BME280;13742;49.306;8.636;2022-10-24T01:43:55;100018.28;;;16.08;100.00
25944;BME280;13742;49.306;8.636;2022-10-24T01:44:54;100018.67;;;16.08;100.00
25944;BME280;13742;49.306;8.636;2022-10-24T01:45:59;100013.52;;;16.07;100.00
25944;BME280;13742;49.306;8.636;2022-10-24T01:46:56;100016.46;;;16.07;100.00
25944;BME280;13742;49.306;8.636;2022-10-24T01:47:55;100014.80;;;16.07;100.00
25944;BME280;13742;49.306;8.636;2022-10-24T01:48:58;100013.34;;;16.06;100.00
25944;BME280;13742;49.306;8.636;2022-10-24T01:49:59;100007.81;;;16.06;100.00
25944;BME280;13742;49.306;8.636;2022-10-24T01:50:54;100010.25;;;16.04;100.00
25944;BME280;13742;49.306;8.636;2022-10-24T01:51:55;100009.70;;;16.05;100.00
25944;BME280;13742;49.306;8.636;2022-10-24T01:52:54;100007.69;;;16.04;100.00
25944;BME280;13742;49.306;8.636;2022-10-24T01:53:54;100006.80;;;16.03;100.00
25944;BME280;13742;49.306;8.636;2022-10-24T01:54:54;100009.48;;;16.03;100.00
25944;BME280;13742;49.306;8.636;2022-10-24T01:55:54;100006.66;;;16.01;100.00
25944;BME280;13742;49.306;8.636;2022-10-24T01:56:54;100004.16;;;16.01;100.00
25944;BME280;13742;49.306;8.636;2022-10-24T01:57:54;100001.59;;;16.01;100.00
25944;BME280;13742;49.306;8.636;2022-10-24T01:59:54;100002.05;;;16.00;100.00
25944;BME280;13742;49.306;8.636;2022-10-24T02:00:57;100004.73;;;15.99;100.00
25944;BME280;13742;49.306;8.636;2022-10-24T02:02:56;100006.95;;;15.98;100.00
25944;BME280;13742;49.306;8.636;2022-10-24T02:03:55;100005.01;;;15.98;100.00
25944;BME280;13742;49.306;8.636;2022-10-24T02:04:55;100002.95;;;15.97;100.00
25944;BME280;13742;49.306;8.636;2022-10-24T02:05:55;100002.02;;;15.96;100.00
25944;BME280;13742;49.306;8.636;2022-10-24T02:06:55;100002.91;;;15.96;100.00
25944;BME280;13742;49.306;8.636;2022-10-24T02:07:55;100001.69;;;15.95;100.00
25944;BME280;13742;49.306;8.636;2022-10-24T02:08:55;100001.13;;;15.95;100.00
25944;BME280;13742;49.306;8.636;2022-10-24T02:10:05;100001.47;;;15.94;100.00
25944;BME280;13742;49.306;8.636;2022-10-24T02:10:56;100002.63;;;15.93;100.00
25944;BME280;13742;49.306;8.636;2022-10-24T02:11:55;100006.79;;;15.93;100.00
25944;BME280;13742;49.306;8.636;2022-10-24T02:12:56;100003.07;;;15.92;100.00
25944;BME280;13742;49.306;8.636;2022-10-24T02:14:59;100003.91;;;15.92;100.00
25944;BME280;13742;49.306;8.636;2022-10-24T02:15:55;100002.13;;;15.92;100.00
25944;BME280;13742;49.306;8.636;2022-10-24T02:16:54;100001.98;;;15.90;100.00
25944;BME280;13742;49.306;8.636;2022-10-24T02:17:54;99998.36;;;15.90;100.00
25944;BME280;13742;49.306;8.636;2022-10-24T02:18:54;99994.70;;;15.90;100.00
25944;BME280;13742;49.306;8.636;2022-10-24T02:19:54;99994.05;;;15.90;100.00
25944;BME280;13742;49.306;8.636;2022-10-24T02:20:58;99991.86;;;15.91;100.00
25944;BME280;13742;49.306;8.636;2022-10-24T02:22:57;99991.71;;;15.90;100.00
25944;BME280;13742;49.306;8.636;2022-10-24T02:23:56;99985.72;;;15.90;100.00
25944;BME280;13742;49.306;8.636;2022-10-24T02:24:56;99986.65;;;15.90;100.00
25944;BME280;13742;49.306;8.636;2022-10-24T02:25:55;99985.27;;;15.91;100.00
25944;BME280;13742;49.306;8.636;2022-10-24T02:27:00;99983.11;;;15.91;100.00
25944;BME280;13742;49.306;8.636;2022-10-24T02:28:58;99987.75;;;15.92;100.00
25944;BME280;13742;49.306;8.636;2022-10-24T02:29:59;99986.42;;;15.92;100.00
25944;BME280;13742;49.306;8.636;2022-10-24T02:30:56;99982.70;;;15.93;100.00
25944;BME280;13742;49.306;8.636;2022-10-24T02:31:55;99986.94;;;15.91;100.00
25944;BME280;13742;49.306;8.636;2022-10-24T02:32:55;99985.81;;;15.92;100.00
25944;BME280;13742;49.306;8.636;2022-10-24T02:33:54;99991.25;;;15.92;100.00
25944;BME280;13742;49.306;8.636;2022-10-24T02:34:54;99991.60;;;15.91;100.00
25944;BME280;13742;49.306;8.636;2022-10-24T02:35:54;99988.94;;;15.91;100.00
25944;BME280;13742;49.306;8.636;2022-10-24T02:36:54;99989.26;;;15.91;100.00
25944;BME280;13742;49.306;8.636;2022-10-24T02:38:55;99989.76;;;15.91;100.00
25944;BME280;13742;49.306;8.636;2022-10-24T02:39:54;99991.59;;;15.91;100.00
25944;BME280;13742;49.306;8.636;2022-10-24T02:40:54;99985.89;;;15.90;100.00
25944;BME280;13742;49.306;8.636;2022-10-24T02:41:54;99984.65;;;15.90;100.00
25944;BME280;13742;49.306;8.636;2022-10-24T02:42:54;99984.27;;;15.91;100.00
25944;BME280;13742;49.306;8.636;2022-10-24T02:43:54;99983.03;;;15.91;100.00
25944;BME280;13742;49.306;8.636;2022-10-24T02:44:54;99986.27;;;15.91;100.00
25944;BME280;13742;49.306;8.636;2022-10-24T02:45:55;99982.11;;;15.89;100.00
25944;BME280;13742;49.306;8.636;2022-10-24T02:46:55;99984.49;;;15.89;100.00
25944;BME280;13742;49.306;8.636;2022-10-24T02:47:56;99984.99;;;15.89;100.00
25944;BME280;13742;49.306;8.636;2022-10-24T02:48:58;99983.05;;;15.88;100.00
25944;BME280;13742;49.306;8.636;2022-10-24T02:49:54;99985.62;;;15.88;100.00
25944;BME280;13742;49.306;8.636;2022-10-24T02:50:54;99984.45;;;15.88;100.00
25944;BME280;13742;49.306;8.636;2022-10-24T02:51:54;99982.88;;;15.88;100.00
25944;BME280;13742;49.306;8.636;2022-10-24T02:52:54;99983.17;;;15.87;100.00
25944;BME280;13742;49.306;8.636;2022-10-24T02:53:55;99981.17;;;15.87;100.00
25944;BME280;13742;49.306;8.636;2022-10-24T02:54:54;99979.07;;;15.87;100.00
25944;BME280;13742;49.306;8.636;2022-10-24T02:55:54;99979.41;;;15.87;100.00
25944;BME280;13742;49.306;8.636;2022-10-24T02:56:57;99980.39;;;15.87;100.00
25944;BME280;13742;49.306;8.636;2022-10-24T02:57:54;99979.68;;;15.86;100.00
25944;BME280;13742;49.306;8.636;2022-10-24T02:58:54;99974.19;;;15.84;100.00
25944;BME280;13742;49.306;8.636;2022-10-24T02:59:54;99976.13;;;15.85;100.00
25944;BME280;13742;49.306;8.636;2022-10-24T03:00:54;99976.34;;;15.86;100.00
25944;BME280;13742;49.306;8.636;2022-10-24T03:01:54;99971.07;;;15.85;100.00
25944;BME280;13742;49.306;8.636;2022-10-24T03:02:54;99974.07;;;15.85;100.00
25944;BME280;13742;49.306;8.636;2022-10-24T03:03:54;99970.53;;;15.84;100.00
25944;BME280;13742;49.306;8.636;2022-10-24T03:04:54;99970.20;;;15.84;100.00
25944;BME280;13742;49.306;8.636;2022-10-24T03:05:54;99972.86;;;15.84;100.00
25944;BME280;13742;49.306;8.636;2022-10-24T03:06:54;99975.36;;;15.84;100.00
25944;BME280;13742;49.306;8.636;2022-10-24T03:07:54;99976.24;;;15.84;100.00
25944;BME280;13742;49.306;8.636;2022-10-24T03:08:54;99973.47;;;15.83;100.00
25944;BME280;13742;49.306;8.636;2022-10-24T03:09:54;99977.41;;;15.83;100.00
25944;BME280;13742;49.306;8.636;2022-10-24T03:10:54;99973.75;;;15.84;100.00
25944;BME280;13742;49.306;8.636;2022-10-24T03:11:54;99974.45;;;15.84;100.00
25944;BME280;13742;49.306;8.636;2022-10-24T03:12:54;99972.36;;;15.84;100.00
25944;BME280;13742;49.306;8.636;2022-10-24T03:13:54;99967.64;;;15.85;100.00
25944;BME280;13742;49.306;8.636;2022-10-24T03:14:54;99965.20;;;15.84;100.00
25944;BME280;13742;49.306;8.636;2022-10-24T03:15:54;99962.81;;;15.85;100.00
25944;BME280;13742;49.306;8.636;2022-10-24T03:16:54;99963.25;;;15.85;100.00
25944;BME280;13742;49.306;8.636;2022-10-24T03:17:54;99964.48;;;15.85;100.00
25944;BME280;13742;49.306;8.636;2022-10-24T03:18:55;99968.58;;;15.85;100.00
25944;BME280;13742;49.306;8.636;2022-10-24T03:19:54;99974.31;;;15.85;100.00
25944;BME280;13742;49.306;8.636;2022-10-24T03:20:54;99975.74;;;15.85;100.00
25944;BME280;13742;49.306;8.636;2022-10-24T03:21:54;99978.08;;;15.85;100.00
25944;BME280;13742;49.306;8.636;2022-10-24T03:22:54;99974.25;;;15.85;100.00
25944;BME280;13742;49.306;8.636;2022-10-24T03:23:54;99979.13;;;15.85;100.00
25944;BME280;13742;49.306;8.636;2022-10-24T03:24:54;99978.28;;;15.84;100.00
25944;BME280;13742;49.306;8.636;2022-10-24T03:25:55;99980.85;;;15.84;100.00
25944;BME280;13742;49.306;8.636;2022-10-24T03:26:54;99981.63;;;15.85;100.00
25944;BME280;13742;49.306;8.636;2022-10-24T03:27:54;99982.57;;;15.85;100.00
25944;BME280;13742;49.306;8.636;2022-10-24T03:28:54;99986.13;;;15.85;100.00
25944;BME280;13742;49.306;8.636;2022-10-24T03:29:54;99985.63;;;15.85;100.00
25944;BME280;13742;49.306;8.636;2022-10-24T03:30:55;99988.73;;;15.85;100.00
25944;BME280;13742;49.306;8.636;2022-10-24T03:31:54;99991.28;;;15.85;100.00
25944;BME280;13742;49.306;8.636;2022-10-24T03:32:54;99995.88;;;15.85;100.00
25944;BME280;13742;49.306;8.636;2022-10-24T03:33:54;100001.11;;;15.85;100.00
25944;BME280;13742;49.306;8.636;2022-10-24T03:34:54;100002.95;;;15.85;100.00
25944;BME280;13742;49.306;8.636;2022-10-24T03:35:54;100004.09;;;15.84;100.00
25944;BME280;13742;49.306;8.636;2022-10-24T03:36:54;100001.88;;;15.85;100.00
25944;BME280;13742;49.306;8.636;2022-10-24T03:37:54;100003.16;;;15.84;100.00
25944;BME280;13742;49.306;8.636;2022-10-24T03:38:54;100006.10;;;15.85;100.00
25944;BME280;13742;49.306;8.636;2022-10-24T03:39:54;100006.88;;;15.84;100.00
25944;BME280;13742;49.306;8.636;2022-10-24T03:40:54;100010.05;;;15.84;100.00
25944;BME280;13742;49.306;8.636;2022-10-24T03:41:54;100010.61;;;15.83;100.00
25944;BME280;13742;49.306;8.636;2022-10-24T03:42:54;100008.09;;;15.84;100.00
25944;BME280;13742;49.306;8.636;2022-10-24T03:43:54;100010.09;;;15.85;100.00
25944;BME280;13742;49.306;8.636;2022-10-24T03:44:54;100004.83;;;15.84;100.00
25944;BME280;13742;49.306;8.636;2022-10-24T03:45:54;100005.27;;;15.85;100.00
25944;BME280;13742;49.306;8.636;2022-10-24T03:46:54;100003.16;;;15.84;100.00
25944;BME280;13742;49.306;8.636;2022-10-24T03:47:54;100003.50;;;15.84;100.00
25944;BME280;13742;49.306;8.636;2022-10-24T03:48:54;100004.28;;;15.85;100.00
25944;BME280;13742;49.306;8.636;2022-10-24T03:49:54;100005.61;;;15.85;100.00
25944;BME280;13742;49.306;8.636;2022-10-24T03:50:54;100005.60;;;15.85;100.00
25944;BME280;13742;49.306;8.636;2022-10-24T03:51:54;100008.43;;;15.86;100.00
25944;BME280;13742;49.306;8.636;2022-10-24T03:52:54;100014.64;;;15.86;100.00
25944;BME280;13742;49.306;8.636;2022-10-24T03:53:54;100017.36;;;15.87;100.00
25944;BME280;13742;49.306;8.636;2022-10-24T03:54:54;100019.98;;;15.86;100.00
25944;BME280;13742;49.306;8.636;2022-10-24T03:55:56;100021.20;;;15.84;100.00
25944;BME280;13742;49.306;8.636;2022-10-24T03:56:54;100018.80;;;15.84;100.00
25944;BME280;13742;49.306;8.636;2022-10-24T03:57:54;100021.69;;;15.83;100.00
25944;BME280;13742;49.306;8.636;2022-10-24T03:58:54;100022.05;;;15.82;100.00
25944;BME280;13742;49.306;8.636;2022-10-24T03:59:54;100025.53;;;15.84;100.00
25944;BME280;13742;49.306;8.636;2022-10-24T04:00:57;100028.47;;;15.84;100.00
25944;BME280;13742;49.306;8.636;2022-10-24T04:01:54;100029.63;;;15.84;100.00
25944;BME280;13742;49.306;8.636;2022-10-24T04:02:54;100030.73;;;15.84;100.00
25944;BME280;13742;49.306;8.636;2022-10-24T04:03:54;100034.80;;;15.84;100.00
25944;BME280;13742;49.306;8.636;2022-10-24T04:04:54;100028.36;;;15.84;100.00
25944;BME280;13742;49.306;8.636;2022-10-24T04:05:54;100028.80;;;15.86;100.00
25944;BME280;13742;49.306;8.636;2022-10-24T04:06:54;100027.30;;;15.84;100.00
25944;BME280;13742;49.306;8.636;2022-10-24T04:07:54;100031.52;;;15.85;100.00
25944;BME280;13742;49.306;8.636;2022-10-24T04:08:56;100026.80;;;15.86;100.00
25944;BME280;13742;49.306;8.636;2022-10-24T04:09:56;100025.75;;;15.85;100.00
25944;BME280;13742;49.306;8.636;2022-10-24T04:10:54;100026.59;;;15.85;100.00
25944;BME280;13742;49.306;8.636;2022-10-24T04:11:54;100027.85;;;15.85;100.00
25944;BME280;13742;49.306;8.636;2022-10-24T04:12:54;100029.92;;;15.85;100.00
25944;BME280;13742;49.306;8.636;2022-10-24T04:13:54;100026.36;;;15.85;100.00
25944;BME280;13742;49.306;8.636;2022-10-24T04:14:54;100027.52;;;15.85;100.00
25944;BME280;13742;49.306;8.636;2022-10-24T04:15:54;100027.97;;;15.84;100.00
25944;BME280;13742;49.306;8.636;2022-10-24T04:16:54;100026.48;;;15.84;100.00
25944;BME280;13742;49.306;8.636;2022-10-24T04:17:54;100030.30;;;15.84;100.00
25944;BME280;13742;49.306;8.636;2022-10-24T04:18:54;100030.13;;;15.84;100.00
25944;BME280;13742;49.306;8.636;2022-10-24T04:19:54;100025.42;;;15.83;100.00
25944;BME280;13742;49.306;8.636;2022-10-24T04:20:54;100025.26;;;15.83;100.00
25944;BME280;13742;49.306;8.636;2022-10-24T04:21:54;100030.64;;;15.84;100.00
25944;BME280;13742;49.306;8.636;2022-10-24T04:22:54;100027.47;;;15.84;100.00
25944;BME280;13742;49.306;8.636;2022-10-24T04:23:54;100029.09;;;15.83;100.00
25944;BME280;13742;49.306;8.636;2022-10-24T04:24:54;100032.74;;;15.83;100.00
25944;BME280;13742;49.306;8.636;2022-10-24T04:25:54;100029.47;;;15.83;100.00
25944;BME280;13742;49.306;8.636;2022-10-24T04:26:54;100034.57;;;15.83;100.00
25944;BME280;13742;49.306;8.636;2022-10-24T04:27:54;100032.25;;;15.82;100.00
25944;BME280;13742;49.306;8.636;2022-10-24T04:28:54;100032.81;;;15.81;100.00
25944;BME280;13742;49.306;8.636;2022-10-24T04:29:54;100031.42;;;15.80;100.00
25944;BME280;13742;49.306;8.636;2022-10-24T04:30:55;100027.38;;;15.81;100.00
25944;BME280;13742;49.306;8.636;2022-10-24T04:31:54;100029.14;;;15.81;100.00
25944;BME280;13742;49.306;8.636;2022-10-24T04:32:55;100025.70;;;15.81;99.90
25944;BME280;13742;49.306;8.636;2022-10-24T04:33:54;100023.14;;;15.81;100.00
25944;BME280;13742;49.306;8.636;2022-10-24T04:34:54;100014.88;;;15.81;100.00
25944;BME280;13742;49.306;8.636;2022-10-24T04:35:54;100014.83;;;15.81;100.00
25944;BME280;13742;49.306;8.636;2022-10-24T04:36:54;100010.93;;;15.81;100.00
25944;BME280;13742;49.306;8.636;2022-10-24T04:37:54;100010.95;;;15.80;100.00
25944;BME280;13742;49.306;8.636;2022-10-24T04:38:55;100008.45;;;15.80;100.00
25944;BME280;13742;49.306;8.636;2022-10-24T04:39:54;100003.73;;;15.79;99.70
25944;BME280;13742;49.306;8.636;2022-10-24T04:40:55;100007.66;;;15.79;99.67
25944;BME280;13742;49.306;8.636;2022-10-24T04:41:54;100002.28;;;15.78;99.70
25944;BME280;13742;49.306;8.636;2022-10-24T04:42:54;100006.63;;;15.79;99.71
25944;BME280;13742;49.306;8.636;2022-10-24T04:43:54;100004.84;;;15.78;99.54
25944;BME280;13742;49.306;8.636;2022-10-24T04:44:54;100003.80;;;15.77;99.53
25944;BME280;13742;49.306;8.636;2022-10-24T04:45:54;100007.45;;;15.77;99.32
25944;BME280;13742;49.306;8.636;2022-10-24T04:46:54;100006.45;;;15.77;99.22
25944;BME280;13742;49.306;8.636;2022-10-24T04:47:54;100002.46;;;15.77;99.17
25944;BME280;13742;49.306;8.636;2022-10-24T04:48:54;100007.84;;;15.77;99.19
25944;BME280;13742;49.306;8.636;2022-10-24T04:49:54;100005.39;;;15.77;99.20
25944;BME280;13742;49.306;8.636;2022-10-24T04:50:54;100005.39;;;15.77;99.42
25944;BME280;13742;49.306;8.636;2022-10-24T04:51:54;100001.63;;;15.77;99.37
25944;BME280;13742;49.306;8.636;2022-10-24T04:52:54;100003.69;;;15.77;99.42
25944;BME280;13742;49.306;8.636;2022-10-24T04:53:54;100006.95;;;15.77;99.42
25944;BME280;13742;49.306;8.636;2022-10-24T04:54:54;100009.39;;;15.75;99.45
25944;BME280;13742;49.306;8.636;2022-10-24T04:55:54;100012.12;;;15.75;99.63
25944;BME280;13742;49.306;8.636;2022-10-24T04:56:54;100012.05;;;15.75;99.58
25944;BME280;13742;49.306;8.636;2022-10-24T04:57:54;100013.55;;;15.75;99.67
25944;BME280;13742;49.306;8.636;2022-10-24T04:58:54;100011.24;;;15.75;99.66
25944;BME280;13742;49.306;8.636;2022-10-24T04:59:54;100010.34;;;15.75;99.54
25944;BME280;13742;49.306;8.636;2022-10-24T05:00:54;100009.84;;;15.75;99.77
25944;BME280;13742;49.306;8.636;2022-10-24T05:01:54;100009.80;;;15.76;99.82
25944;BME280;13742;49.306;8.636;2022-10-24T05:02:54;100010.62;;;15.77;99.62
25944;BME280;13742;49.306;8.636;2022-10-24T05:03:54;100007.57;;;15.76;99.74
25944;BME280;13742;49.306;8.636;2022-10-24T05:04:54;100005.84;;;15.76;99.63
25944;BME280;13742;49.306;8.636;2022-10-24T05:05:54;100003.34;;;15.76;99.56
25944;BME280;13742;49.306;8.636;2022-10-24T05:06:54;100007.13;;;15.76;99.49
25944;BME280;13742;49.306;8.636;2022-10-24T05:07:54;100003.23;;;15.75;99.48
25944;BME280;13742;49.306;8.636;2022-10-24T05:08:54;100006.63;;;15.76;99.47
25944;BME280;13742;49.306;8.636;2022-10-24T05:09:54;100017.28;;;15.75;99.46
25944;BME280;13742;49.306;8.636;2022-10-24T05:10:54;100027.70;;;15.75;99.46
25944;BME280;13742;49.306;8.636;2022-10-24T05:11:55;100033.20;;;15.75;99.44
25944;BME280;13742;49.306;8.636;2022-10-24T05:12:54;100037.37;;;15.76;99.23
25944;BME280;13742;49.306;8.636;2022-10-24T05:13:54;100036.15;;;15.75;99.16
25944;BME280;13742;49.306;8.636;2022-10-24T05:14:54;100036.59;;;15.74;99.17
25944;BME280;13742;49.306;8.636;2022-10-24T05:15:54;100038.59;;;15.74;99.18
25944;BME280;13742;49.306;8.636;2022-10-24T05:16:54;100038.76;;;15.74;99.14
25944;BME280;13742;49.306;8.636;2022-10-24T05:17:55;100038.75;;;15.73;99.30
25944;BME280;13742;49.306;8.636;2022-10-24T05:18:54;100037.93;;;15.74;99.57
25944;BME280;13742;49.306;8.636;2022-10-24T05:19:54;100040.20;;;15.75;99.48
25944;BME280;13742;49.306;8.636;2022-10-24T05:20:55;100049.02;;;15.75;99.43
25944;BME280;13742;49.306;8.636;2022-10-24T05:21:54;100058.30;;;15.75;99.28
25944;BME280;13742;49.306;8.636;2022-10-24T05:22:54;100065.28;;;15.75;99.22
25944;BME280;13742;49.306;8.636;2022-10-24T05:23:54;100068.22;;;15.75;99.19
25944;BME280;13742;49.306;8.636;2022-10-24T05:24:55;100070.38;;;15.76;99.13
25944;BME280;13742;49.306;8.636;2022-10-24T05:25:54;100071.11;;;15.77;99.52
25944;BME280;13742;49.306;8.636;2022-10-24T05:26:54;100064.73;;;15.77;99.59
25944;BME280;13742;49.306;8.636;2022-10-24T05:27:54;100066.22;;;15.77;99.50
25944;BME280;13742;49.306;8.636;2022-10-24T05:28:54;100063.72;;;15.78;99.38
25944;BME280;13742;49.306;8.636;2022-10-24T05:29:54;100061.73;;;15.79;99.22
25944;BME280;13742;49.306;8.636;2022-10-24T05:30:54;100063.22;;;15.78;99.31
25944;BME280;13742;49.306;8.636;2022-10-24T05:31:54;100064.67;;;15.78;99.10
25944;BME280;13742;49.306;8.636;2022-10-24T05:32:54;100062.89;;;15.77;99.44
25944;BME280;13742;49.306;8.636;2022-10-24T05:33:54;100061.00;;;15.77;99.25
25944;BME280;13742;49.306;8.636;2022-10-24T05:34:54;100060.07;;;15.77;99.56